Time;durP1;ratioP1;P1;durP2;ratioP2;P2;SDS_P1;SDS_P2;PMS_P1;PMS_P2;Temp;Humidity;BMP_temperature;BMP_pressure;BME280_temperature;BME280_humidity;BME280_pressure;Samples;Min_cycle;Max_cycle;Signal;HPM_P1;HPM_P2
2023/07/17 00:00:23;;;;;;;16.20;3.55;;;15.80;95.70;;;;;;5029061;28;20022;-81
2023/07/17 00:02:48;;;;;;;11.57;3.15;;;15.80;95.80;;;;;;5014376;28;20453;-80
2023/07/17 00:05:14;;;;;;;12.38;3.35;;;15.80;95.70;;;;;;5013868;28;20052;-80
2023/07/17 00:07:40;;;;;;;13.45;3.67;;;15.90;95.70;;;;;;5015049;28;20017;-81
2023/07/17 00:10:08;;;;;;;11.88;3.10;;;15.90;95.70;;;;;;5013831;28;20025;-80
2023/07/17 00:12:33;;;;;;;16.38;2.75;;;15.80;95.50;;;;;;5014511;28;20022;-81
2023/07/17 00:14:59;;;;;;;11.23;3.10;;;15.80;95.50;;;;;;5014374;28;20014;-82
2023/07/17 00:17:25;;;;;;;16.77;3.72;;;15.80;95.60;;;;;;5012974;28;20098;-81
2023/07/17 00:19:55;;;;;;;1086.40;579.05;;;15.70;95.50;;;;;;5029274;28;20029;-79
2023/07/17 00:22:22;;;;;;;12.82;3.15;;;15.60;95.80;;;;;;5013663;28;20129;-79
2023/07/17 00:24:49;;;;;;;50.45;46.22;;;15.60;96.00;;;;;;5014004;28;20049;-80
2023/07/17 00:27:15;;;;;;;14.23;2.95;;;15.60;96.00;;;;;;5013796;28;20447;-81
2023/07/17 00:29:43;;;;;;;9.77;2.65;;;15.50;96.00;;;;;;5014204;28;20025;-82
2023/07/17 00:32:13;;;;;;;15.05;3.55;;;15.50;96.10;;;;;;5013855;28;20041;-82
2023/07/17 00:34:39;;;;;;;57.38;32.50;;;15.50;96.10;;;;;;5013843;28;20018;-81
2023/07/17 00:37:05;;;;;;;13.90;3.55;;;15.40;96.20;;;;;;5065286;22;20049;-84
2023/07/17 00:39:31;;;;;;;9.63;2.88;;;15.40;96.20;;;;;;5052721;28;20028;-83
2023/07/17 00:41:57;;;;;;;12.10;3.17;;;15.40;96.60;;;;;;5052599;28;20029;-83
2023/07/17 00:44:23;;;;;;;17.10;3.03;;;15.40;96.60;;;;;;5053050;28;20051;-83
2023/07/17 00:46:52;;;;;;;175.85;48.13;;;15.40;96.90;;;;;;5052265;28;20396;-84
2023/07/17 00:49:18;;;;;;;8.77;3.00;;;15.50;96.90;;;;;;5035237;28;20067;-84
2023/07/17 00:51:44;;;;;;;12.25;3.30;;;15.50;96.80;;;;;;5034933;28;20036;-83
2023/07/17 00:54:14;;;;;;;15.98;4.28;;;15.50;96.60;;;;;;5035484;28;20020;-85
2023/07/17 00:56:41;;;;;;;16.02;3.88;;;15.50;96.40;;;;;;5052340;28;20021;-83
2023/07/17 00:59:07;;;;;;;14.68;3.90;;;15.40;96.40;;;;;;5052358;28;20029;-82
2023/07/17 01:01:33;;;;;;;13.63;4.18;;;15.40;96.50;;;;;;5052605;28;20017;-84
2023/07/17 01:04:04;;;;;;;18.50;3.85;;;15.30;96.60;;;;;;5052706;28;20024;-85
2023/07/17 01:06:30;;;;;;;14.63;2.97;;;15.30;96.80;;;;;;5041500;28;20025;-81
2023/07/17 01:08:57;;;;;;;7.88;3.35;;;15.30;96.80;;;;;;5052041;28;20025;-84
2023/07/17 01:11:23;;;;;;;13.43;3.50;;;15.20;96.60;;;;;;5044423;28;20025;-82
2023/07/17 01:13:50;;;;;;;11.88;2.72;;;15.20;96.70;;;;;;5052333;28;20036;-83
2023/07/17 01:16:16;;;;;;;15.85;3.50;;;15.30;96.40;;;;;;5051664;28;20040;-83
2023/07/17 01:18:42;;;;;;;11.13;2.95;;;15.30;96.40;;;;;;5052007;28;20037;-83
2023/07/17 01:21:09;;;;;;;13.05;4.03;;;15.20;96.40;;;;;;5051667;28;20024;-84
2023/07/17 01:23:35;;;;;;;12.95;3.53;;;15.30;96.30;;;;;;5052091;28;20024;-83
2023/07/17 01:26:11;;;;;;;17.45;5.03;;;15.30;96.20;;;;;;5052008;28;20036;-83
2023/07/17 01:28:36;;;;;;;20.73;3.95;;;15.40;96.10;;;;;;5034920;28;20108;-84
2023/07/17 01:31:03;;;;;;;17.52;4.38;;;15.50;95.90;;;;;;5052033;28;20529;-83
2023/07/17 01:33:28;;;;;;;14.05;3.55;;;15.50;96.00;;;;;;5048531;28;20017;-84
2023/07/17 01:35:54;;;;;;;12.98;3.17;;;15.40;95.90;;;;;;5045951;22;20045;-82
2023/07/17 01:38:19;;;;;;;10.40;2.97;;;15.40;95.70;;;;;;5014444;28;20164;-81
2023/07/17 01:40:45;;;;;;;12.52;3.67;;;15.40;95.70;;;;;;5013233;28;20069;-81
2023/07/17 01:43:11;;;;;;;13.82;3.78;;;15.30;96.00;;;;;;5012518;28;20030;-81
2023/07/17 01:45:36;;;;;;;9.20;3.33;;;15.20;96.00;;;;;;5013073;28;20097;-81
2023/07/17 01:48:02;;;;;;;15.18;5.82;;;15.20;96.00;;;;;;5013005;28;20036;-81
2023/07/17 01:50:28;;;;;;;13.40;3.92;;;15.20;96.00;;;;;;5012562;28;20052;-81
2023/07/17 01:52:53;;;;;;;11.65;3.50;;;15.20;96.10;;;;;;5012849;28;20064;-81
2023/07/17 01:55:19;;;;;;;11.30;3.60;;;15.20;96.10;;;;;;5012975;28;20105;-79
2023/07/17 01:57:44;;;;;;;11.95;3.67;;;15.20;96.00;;;;;;5011458;28;20470;-81
2023/07/17 02:00:12;;;;;;;16.67;3.85;;;15.20;96.20;;;;;;5013172;28;20030;-82
2023/07/17 02:02:38;;;;;;;15.50;4.13;;;15.20;95.90;;;;;;5012791;28;20021;-79
2023/07/17 02:05:04;;;;;;;9.80;4.15;;;15.10;96.10;;;;;;5012604;28;20018;-81
2023/07/17 02:07:30;;;;;;;19.58;5.00;;;15.20;96.20;;;;;;5018894;28;20025;-78
2023/07/17 02:09:55;;;;;;;12.75;3.95;;;15.20;96.30;;;;;;5012858;28;20513;-79
2023/07/17 02:12:21;;;;;;;13.15;4.50;;;15.10;96.40;;;;;;5012212;28;20037;-80
2023/07/17 02:14:47;;;;;;;14.82;4.50;;;15.10;96.40;;;;;;5012723;28;20144;-81
2023/07/17 02:17:12;;;;;;;15.20;6.05;;;15.20;96.30;;;;;;5012632;28;20092;-81
2023/07/17 02:19:38;;;;;;;13.07;4.70;;;15.20;95.90;;;;;;5012678;28;20530;-80
2023/07/17 02:22:04;;;;;;;14.82;4.50;;;15.20;95.80;;;;;;5011879;28;20109;-81
2023/07/17 02:24:30;;;;;;;15.65;4.07;;;15.20;95.80;;;;;;5012241;28;20053;-80
2023/07/17 02:26:58;;;;;;;15.43;5.40;;;15.20;95.90;;;;;;5010778;28;20029;-80
2023/07/17 02:29:24;;;;;;;15.15;4.85;;;15.20;96.00;;;;;;5012534;28;20382;-81
2023/07/17 02:31:50;;;;;;;16.80;5.30;;;15.20;96.20;;;;;;5011076;28;20374;-81
2023/07/17 02:34:16;;;;;;;21.38;5.25;;;15.20;96.30;;;;;;5012206;28;20028;-81
2023/07/17 02:36:42;;;;;;;11.35;4.57;;;15.30;96.30;;;;;;5054029;22;20088;-84
2023/07/17 02:39:08;;;;;;;16.92;5.53;;;15.30;96.40;;;;;;5033081;28;20023;-83
2023/07/17 02:41:34;;;;;;;13.00;5.13;;;15.30;96.30;;;;;;5033187;28;20111;-84
2023/07/17 02:44:00;;;;;;;20.52;5.57;;;15.20;96.50;;;;;;5050571;28;20018;-83
2023/07/17 02:46:25;;;;;;;15.82;5.05;;;15.20;96.50;;;;;;5049935;28;20028;-84
2023/07/17 02:48:51;;;;;;;12.43;4.80;;;15.20;96.70;;;;;;5050588;28;20020;-83
2023/07/17 02:51:17;;;;;;;18.02;5.35;;;15.20;96.80;;;;;;5050520;28;20021;-84
2023/07/17 02:53:43;;;;;;;17.10;5.30;;;15.30;96.70;;;;;;5050617;28;20108;-84
2023/07/17 02:56:08;;;;;;;22.10;6.20;;;15.30;96.70;;;;;;5050379;28;20028;-83
2023/07/17 02:58:41;;;;;;;12.13;4.93;;;15.40;96.80;;;;;;5050672;28;20029;-85
2023/07/17 03:01:06;;;;;;;13.60;5.30;;;15.50;97.00;;;;;;5050632;28;20010;-83
2023/07/17 03:03:32;;;;;;;18.45;6.15;;;15.50;98.10;;;;;;5050550;28;20032;-83
2023/07/17 03:05:57;;;;;;;21.85;5.60;;;15.40;98.20;;;;;;5055125;28;20025;-82
2023/07/17 03:08:23;;;;;;;19.83;6.07;;;15.40;98.80;;;;;;5034037;28;20017;-80
2023/07/17 03:10:49;;;;;;;13.57;5.10;;;15.30;99.20;;;;;;5052153;28;20075;-81
2023/07/17 03:13:14;;;;;;;17.70;5.93;;;15.40;98.90;;;;;;5054563;28;20025;-82
2023/07/17 03:15:40;;;;;;;22.95;5.57;;;15.30;99.10;;;;;;5054454;28;20025;-82
2023/07/17 03:18:06;;;;;;;19.35;6.05;;;15.30;99.30;;;;;;5053913;28;20388;-81
2023/07/17 03:20:34;;;;;;;20.02;5.93;;;15.20;99.80;;;;;;5036701;28;20021;-82
2023/07/17 03:23:00;;;;;;;18.13;6.25;;;15.10;99.80;;;;;;5054369;28;20052;-81
2023/07/17 03:25:25;;;;;;;14.07;6.13;;;15.10;99.90;;;;;;5054170;28;20025;-81
2023/07/17 03:27:51;;;;;;;17.77;6.53;;;15.10;99.90;;;;;;5053900;28;20025;-81
2023/07/17 03:30:17;;;;;;;11.50;6.13;;;15.00;99.90;;;;;;5053968;28;20070;-81
2023/07/17 03:32:42;;;;;;;13.90;6.18;;;14.90;99.90;;;;;;5053977;28;20114;-81
2023/07/17 03:37:46;;;;;;;17.30;5.78;;;14.70;99.90;;;;;;5077004;28;20056;-78
2023/07/17 03:40:12;;;;;;;13.02;5.45;;;14.60;99.90;;;;;;5073753;28;20017;-80
2023/07/17 03:42:37;;;;;;;14.02;6.72;;;14.50;99.90;;;;;;5073919;28;20048;-80
2023/07/17 03:45:05;;;;;;;12.40;5.95;;;14.50;99.90;;;;;;5074116;28;20017;-81
2023/07/17 03:47:30;;;;;;;13.30;5.95;;;14.50;99.90;;;;;;5073723;28;20385;-80
2023/07/17 03:49:56;;;;;;;11.98;6.25;;;14.40;99.90;;;;;;5067795;28;20020;-80
2023/07/17 03:52:22;;;;;;;12.88;6.20;;;14.30;99.90;;;;;;5070332;28;20028;-80
2023/07/17 03:54:48;;;;;;;13.00;5.32;;;14.20;99.90;;;;;;5073356;28;20023;-80
2023/07/17 03:57:13;;;;;;;11.38;5.72;;;14.20;99.90;;;;;;5073441;28;20032;-80
2023/07/17 03:59:55;;;;;;;15.43;6.28;;;14.20;99.90;;;;;;5073706;28;20012;-80
2023/07/17 04:02:22;;;;;;;14.07;6.32;;;14.30;99.90;;;;;;5068078;28;20038;-80
2023/07/17 04:04:48;;;;;;;15.50;6.32;;;14.30;99.90;;;;;;5073114;28;20067;-80
2023/07/17 04:07:14;;;;;;;19.73;6.18;;;14.30;99.90;;;;;;5078361;28;20028;-79
2023/07/17 04:09:40;;;;;;;22.73;8.27;;;14.30;99.90;;;;;;5073620;28;20029;-80
2023/07/17 04:12:06;;;;;;;15.90;6.32;;;14.20;99.90;;;;;;5073317;28;20103;-80
2023/07/17 04:14:33;;;;;;;19.73;6.68;;;14.20;99.90;;;;;;5073329;28;20052;-80
2023/07/17 04:16:59;;;;;;;16.88;7.25;;;14.20;99.90;;;;;;5073354;28;20430;-80
2023/07/17 04:19:25;;;;;;;16.25;6.47;;;14.20;99.90;;;;;;5073329;28;20068;-81
2023/07/17 04:21:50;;;;;;;14.32;6.82;;;14.20;99.90;;;;;;5067271;28;20069;-81
2023/07/17 04:24:16;;;;;;;14.68;6.57;;;14.20;99.90;;;;;;5073206;28;20100;-80
2023/07/17 04:26:42;;;;;;;20.60;7.32;;;14.20;99.90;;;;;;5066181;28;20044;-81
2023/07/17 04:29:08;;;;;;;16.65;5.97;;;14.10;99.90;;;;;;5073084;28;20374;-80
2023/07/17 04:31:33;;;;;;;16.38;6.50;;;14.10;99.90;;;;;;5073042;28;20020;-81
2023/07/17 04:33:59;;;;;;;20.77;6.70;;;14.20;99.90;;;;;;5072914;28;20024;-80
2023/07/17 04:36:25;;;;;;;16.15;5.88;;;14.10;99.90;;;;;;5074056;22;20049;-81
2023/07/17 04:38:50;;;;;;;16.23;5.85;;;14.20;99.90;;;;;;5048689;28;20029;-81
2023/07/17 04:41:16;;;;;;;17.38;6.18;;;14.20;99.90;;;;;;5033811;28;20111;-82
2023/07/17 04:43:42;;;;;;;16.63;6.47;;;14.20;99.90;;;;;;5032374;28;20029;-82
2023/07/17 04:46:08;;;;;;;14.45;5.63;;;14.30;99.90;;;;;;5033823;28;20021;-81
2023/07/17 04:48:33;;;;;;;19.08;6.57;;;14.30;99.90;;;;;;5033583;28;20029;-82
2023/07/17 04:51:00;;;;;;;11.98;5.95;;;14.30;99.90;;;;;;5048483;28;20025;-81
2023/07/17 04:53:25;;;;;;;10.75;5.53;;;14.30;99.90;;;;;;5031900;28;20053;-81
2023/07/17 04:55:51;;;;;;;17.13;5.88;;;14.40;99.90;;;;;;5048115;28;20045;-82
2023/07/17 04:58:18;;;;;;;15.68;5.60;;;14.60;99.90;;;;;;5034577;28;20079;-82
2023/07/17 05:00:46;;;;;;;12.30;5.68;;;14.90;99.90;;;;;;5037373;28;20033;-82
2023/07/17 05:03:13;;;;;;;19.25;5.53;;;15.10;99.80;;;;;;5032126;28;20083;-82
2023/07/17 05:05:39;;;;;;;13.18;4.93;;;15.10;99.60;;;;;;5034018;28;20025;-81
2023/07/17 05:08:05;;;;;;;16.92;5.53;;;15.20;98.80;;;;;;5036561;28;20031;-80
2023/07/17 05:10:31;;;;;;;17.27;5.15;;;15.40;98.40;;;;;;5033230;28;20019;-81
2023/07/17 05:12:59;;;;;;;23.92;5.93;;;15.60;98.20;;;;;;5033179;28;20029;-81
2023/07/17 05:15:24;;;;;;;12.10;5.63;;;15.70;97.50;;;;;;5033108;28;20029;-81
2023/07/17 05:17:50;;;;;;;11.23;4.63;;;15.70;97.50;;;;;;5032798;28;20552;-82
2023/07/17 05:20:16;;;;;;;14.40;4.80;;;15.80;97.20;;;;;;5032983;28;20021;-82
2023/07/17 05:22:41;;;;;;;18.92;5.80;;;15.90;96.80;;;;;;5032584;28;20124;-81
2023/07/17 05:25:07;;;;;;;15.63;4.57;;;15.80;97.00;;;;;;5032686;28;20017;-81
2023/07/17 05:27:33;;;;;;;13.02;4.97;;;15.90;97.50;;;;;;5032768;28;20100;-81
2023/07/17 05:29:58;;;;;;;19.50;5.80;;;15.90;96.20;;;;;;5031392;28;20060;-83
2023/07/17 05:32:24;;;;;;;15.45;5.47;;;15.90;96.20;;;;;;5047839;28;20113;-82
2023/07/17 05:34:50;;;;;;;15.90;4.95;;;15.90;96.30;;;;;;5031572;28;20452;-82
2023/07/17 05:37:18;;;;;;;16.13;5.68;;;16.00;95.80;;;;;;5050545;22;20058;-83
2023/07/17 05:39:44;;;;;;;15.40;5.18;;;16.10;96.40;;;;;;5032342;28;20628;-80
2023/07/17 05:42:10;;;;;;;10.00;4.75;;;16.10;96.00;;;;;;5032489;28;20597;-82
2023/07/17 05:44:35;;;;;;;12.25;5.07;;;16.20;95.50;;;;;;5047497;28;20120;-81
2023/07/17 05:47:01;;;;;;;12.30;4.70;;;16.20;95.60;;;;;;5031232;28;20034;-81
2023/07/17 05:49:28;;;;;;;12.15;4.18;;;16.30;95.30;;;;;;5032799;28;20020;-82
2023/07/17 05:51:54;;;;;;;11.98;4.35;;;16.30;94.60;;;;;;5032421;28;20088;-81
2023/07/17 05:54:20;;;;;;;12.13;4.25;;;16.20;94.60;;;;;;5032445;28;20483;-81
2023/07/17 05:56:46;;;;;;;11.68;4.47;;;16.20;95.00;;;;;;5032067;28;20386;-82
2023/07/17 05:59:11;;;;;;;13.88;4.80;;;16.20;94.80;;;;;;5032031;28;20021;-80
2023/07/17 06:01:37;;;;;;;11.52;4.38;;;16.10;94.70;;;;;;5031947;28;20462;-82
2023/07/17 06:04:02;;;;;;;16.75;4.53;;;16.00;94.80;;;;;;5032212;28;20386;-81
2023/07/17 06:06:28;;;;;;;10.55;5.35;;;16.10;94.90;;;;;;5035482;28;20029;-82
2023/07/17 06:08:54;;;;;;;16.13;7.50;;;16.20;95.00;;;;;;5047425;28;20017;-82
2023/07/17 06:11:19;;;;;;;10.60;4.57;;;16.40;94.50;;;;;;5030705;28;20474;-82
2023/07/17 06:13:45;;;;;;;14.27;4.80;;;16.60;94.40;;;;;;5030772;28;20057;-82
2023/07/17 06:16:10;;;;;;;13.85;4.68;;;16.80;93.80;;;;;;5031690;28;20033;-81
2023/07/17 06:18:36;;;;;;;13.60;5.03;;;17.00;93.90;;;;;;5032014;28;20025;-81
2023/07/17 06:21:03;;;;;;;10.43;4.50;;;17.10;93.10;;;;;;5031504;28;20510;-81
2023/07/17 06:23:28;;;;;;;14.80;4.15;;;17.20;92.30;;;;;;5031714;28;20029;-81
2023/07/17 06:25:54;;;;;;;10.73;4.20;;;17.10;92.80;;;;;;5031949;28;20083;-81
2023/07/17 06:28:19;;;;;;;10.15;4.50;;;17.00;92.60;;;;;;5031705;28;20022;-81
2023/07/17 06:30:46;;;;;;;10.00;3.92;;;17.00;92.20;;;;;;5031662;28;20040;-81
2023/07/17 06:33:12;;;;;;;14.70;5.22;;;17.00;92.10;;;;;;5031793;28;20013;-82
2023/07/17 06:35:38;;;;;;;19.48;4.65;;;17.30;92.10;;;;;;5044478;22;20036;-82
2023/07/17 06:38:04;;;;;;;14.52;4.18;;;17.50;92.60;;;;;;5048598;28;20054;-82
2023/07/17 06:40:29;;;;;;;10.73;4.60;;;17.70;92.10;;;;;;5030251;28;20009;-83
2023/07/17 06:42:55;;;;;;;10.75;4.43;;;17.90;92.10;;;;;;5031181;28;20024;-83
2023/07/17 06:45:21;;;;;;;9.05;4.22;;;17.90;91.20;;;;;;5029410;28;20029;-83
2023/07/17 06:47:47;;;;;;;10.18;4.18;;;17.90;90.70;;;;;;5046258;28;20040;-84
2023/07/17 06:50:12;;;;;;;9.50;3.60;;;17.80;91.60;;;;;;5043569;28;20112;-83
2023/07/17 06:52:38;;;;;;;10.80;4.35;;;17.70;91.30;;;;;;5028277;28;20122;-84
2023/07/17 06:55:07;;;;;;;10.27;3.97;;;17.70;91.70;;;;;;5031339;28;20153;-82
2023/07/17 06:57:32;;;;;;;10.35;4.30;;;17.70;91.80;;;;;;5036970;28;20037;-84
2023/07/17 06:59:58;;;;;;;9.68;4.30;;;17.70;91.40;;;;;;5031449;28;20083;-83
2023/07/17 07:02:24;;;;;;;12.45;3.75;;;17.70;91.50;;;;;;5036572;28;20430;-82
2023/07/17 07:04:49;;;;;;;8.13;3.42;;;17.70;91.20;;;;;;5031296;28;20030;-83
2023/07/17 07:07:15;;;;;;;11.75;3.10;;;17.80;91.00;;;;;;5033966;28;20032;-83
2023/07/17 07:09:41;;;;;;;13.40;3.92;;;17.80;90.90;;;;;;5046625;28;20022;-84
2023/07/17 07:12:07;;;;;;;11.20;4.00;;;17.90;91.30;;;;;;5039413;28;20064;-82
2023/07/17 07:14:32;;;;;;;10.07;3.45;;;18.00;91.70;;;;;;5031202;28;20075;-83
2023/07/17 07:16:58;;;;;;;11.20;3.53;;;18.20;91.80;;;;;;5031062;28;20033;-83
2023/07/17 07:19:24;;;;;;;10.35;3.10;;;18.40;91.10;;;;;;5033862;28;20029;-82
2023/07/17 07:21:49;;;;;;;8.82;3.28;;;18.50;89.90;;;;;;5030708;28;20087;-83
2023/07/17 07:24:15;;;;;;;10.13;3.50;;;18.40;88.90;;;;;;5030967;28;20104;-82
2023/07/17 07:26:41;;;;;;;10.40;3.90;;;18.40;90.00;;;;;;5035755;28;20098;-83
2023/07/17 07:29:06;;;;;;;11.05;3.10;;;18.50;90.30;;;;;;5032664;28;20116;-84
2023/07/17 07:31:32;;;;;;;7.00;3.42;;;18.30;88.70;;;;;;5030901;28;20017;-82
2023/07/17 07:33:57;;;;;;;11.48;3.17;;;18.20;89.00;;;;;;5031015;28;20026;-84
2023/07/17 07:36:25;;;;;;;9.65;2.60;;;17.90;89.30;;;;;;5046840;22;20481;-81
2023/07/17 07:38:51;;;;;;;5.80;2.60;;;17.70;88.20;;;;;;5028434;28;20119;-82
2023/07/17 07:41:17;;;;;;;8.60;2.60;;;17.60;88.60;;;;;;5029279;28;20474;-80
2023/07/17 07:43:43;;;;;;;9.18;2.28;;;17.60;90.10;;;;;;5029849;28;20029;-82
2023/07/17 07:46:09;;;;;;;9.70;2.55;;;17.70;90.60;;;;;;5030560;28;20390;-83
2023/07/17 07:48:34;;;;;;;10.57;3.10;;;17.90;89.70;;;;;;5029865;28;20466;-82
2023/07/17 07:51:00;;;;;;;8.77;3.28;;;18.00;90.10;;;;;;5029269;28;20690;-81
2023/07/17 07:53:26;;;;;;;9.85;4.63;;;18.20;89.70;;;;;;5029442;28;20549;-82
2023/07/17 07:55:51;;;;;;;12.82;3.22;;;18.20;90.30;;;;;;5030492;28;20043;-80
2023/07/17 07:58:17;;;;;;;11.05;4.10;;;18.30;90.40;;;;;;5034191;28;20116;-81
2023/07/17 08:00:43;;;;;;;10.70;3.17;;;18.20;90.20;;;;;;5034507;28;20466;-82
2023/07/17 08:03:08;;;;;;;7.97;3.58;;;18.10;90.40;;;;;;5033700;28;20025;-81
2023/07/17 08:05:34;;;;;;;8.23;2.72;;;18.00;89.00;;;;;;5034126;28;20064;-80
2023/07/17 08:07:59;;;;;;;8.40;1.88;;;18.10;86.40;;;;;;5033783;28;20037;-80
2023/07/17 08:10:25;;;;;;;6.55;1.98;;;18.20;87.70;;;;;;5034156;28;20072;-81
2023/07/17 08:12:51;;;;;;;7.97;2.80;;;18.40;85.30;;;;;;5040699;28;20088;-82
2023/07/17 08:15:16;;;;;;;13.75;2.72;;;18.20;87.00;;;;;;5032878;28;20040;-82
2023/07/17 08:17:42;;;;;;;4.75;2.03;;;18.30;89.30;;;;;;5033908;28;20075;-84
2023/07/17 08:20:08;;;;;;;8.52;2.50;;;18.40;87.70;;;;;;5034121;28;20014;-86
2023/07/17 08:22:34;;;;;;;6.72;2.45;;;18.50;87.70;;;;;;5033769;28;20017;-80
2023/07/17 08:25:00;;;;;;;5.40;2.10;;;18.70;87.00;;;;;;5034208;28;20024;-81
2023/07/17 08:27:26;;;;;;;8.88;2.30;;;18.80;83.80;;;;;;5033864;28;20036;-80
2023/07/17 08:29:51;;;;;;;4.47;1.70;;;19.00;84.90;;;;;;5032711;28;20500;-81
2023/07/17 08:32:17;;;;;;;4.53;1.90;;;19.20;83.70;;;;;;5033934;28;20076;-80
2023/07/17 08:34:43;;;;;;;7.50;2.45;;;19.30;82.60;;;;;;5034032;28;20025;-80
2023/07/17 08:37:09;;;;;;;12.10;2.08;;;19.40;84.00;;;;;;5058911;22;20060;-82
2023/07/17 08:39:34;;;;;;;6.50;2.13;;;19.40;84.10;;;;;;5052215;28;20021;-82
2023/07/17 08:42:01;;;;;;;10.93;1.80;;;19.30;82.90;;;;;;5052068;28;20818;-84
2023/07/17 08:44:28;;;;;;;6.60;2.00;;;19.50;83.70;;;;;;5053306;28;20102;-82
2023/07/17 08:46:56;;;;;;;8.48;1.65;;;19.40;82.60;;;;;;5053240;28;20373;-84
2023/07/17 08:49:22;;;;;;;8.75;1.85;;;19.40;82.50;;;;;;5045402;28;20025;-83
2023/07/17 08:51:51;;;;;;;10.50;1.92;;;19.40;81.60;;;;;;5053382;28;20025;-83
2023/07/17 08:54:18;;;;;;;3.85;1.40;;;19.90;80.20;;;;;;5053004;28;20478;-82
2023/07/17 08:56:45;;;;;;;5.07;1.50;;;20.40;79.20;;;;;;5053431;28;20029;-82
2023/07/17 08:59:12;;;;;;;9.68;1.45;;;21.10;76.20;;;;;;5053451;28;20021;-83
2023/07/17 09:01:39;;;;;;;7.05;1.20;;;21.80;72.70;;;;;;5053291;28;20016;-85
2023/07/17 09:04:06;;;;;;;5.00;1.35;;;22.20;69.50;;;;;;5053343;28;20021;-84
2023/07/17 09:06:31;;;;;;;5.57;1.33;;;22.80;68.40;;;;;;5050663;28;20021;-83
2023/07/17 09:08:57;;;;;;;5.40;1.10;;;23.70;64.40;;;;;;5051532;28;20100;-83
2023/07/17 09:11:22;;;;;;;7.03;0.98;;;23.30;63.30;;;;;;5052694;28;20342;-83
2023/07/17 09:13:49;;;;;;;4.93;1.55;;;22.60;62.70;;;;;;5051473;28;20504;-82
2023/07/17 09:16:25;;;;;;;5.20;1.20;;;22.30;63.80;;;;;;5052718;28;20013;-82
2023/07/17 09:18:53;;;;;;;9.23;1.50;;;21.90;66.50;;;;;;5053001;28;20060;-83
2023/07/17 09:21:26;;;;;;;9.00;1.58;;;21.50;68.80;;;;;;5052623;28;20051;-82
2023/07/17 09:23:56;;;;;;;10.07;1.60;;;22.10;69.30;;;;;;5045825;28;20032;-82
2023/07/17 09:26:23;;;;;;;5.80;0.90;;;23.10;66.00;;;;;;5052849;28;20036;-83
2023/07/17 09:28:52;;;;;;;6.38;0.80;;;23.70;63.40;;;;;;5052811;28;20029;-81
2023/07/17 09:31:28;;;;;;;13.48;1.52;;;24.40;62.00;;;;;;5052912;28;20024;-83
2023/07/17 09:33:56;;;;;;;4.68;0.98;;;24.80;60.50;;;;;;5045925;28;20021;-83
2023/07/17 09:36:22;;;;;;;6.32;1.15;;;25.00;58.30;;;;;;5061844;22;20069;-82
2023/07/17 09:38:55;;;;;;;5.15;1.30;;;24.80;58.20;;;;;;5031573;28;20036;-83
2023/07/17 09:41:26;;;;;;;5.78;1.20;;;24.70;58.60;;;;;;5032987;28;20458;-81
2023/07/17 09:43:53;;;;;;;5.80;1.17;;;24.80;57.60;;;;;;5032411;28;20101;-82
2023/07/17 09:46:20;;;;;;;3.58;1.05;;;24.40;57.00;;;;;;5032720;28;20063;-82
2023/07/17 09:48:46;;;;;;;8.02;1.20;;;24.00;59.30;;;;;;5032283;28;20084;-82
2023/07/17 09:51:12;;;;;;;8.60;1.48;;;23.40;60.20;;;;;;5047412;28;20014;-81
2023/07/17 09:53:40;;;;;;;6.07;1.08;;;23.00;63.10;;;;;;5032455;28;20029;-85
2023/07/17 09:56:10;;;;;;;5.85;1.73;;;23.40;62.40;;;;;;5032193;28;20018;-84
2023/07/17 09:58:39;;;;;;;3.90;1.02;;;24.50;62.80;;;;;;5032358;28;20026;-82
2023/07/17 10:01:07;;;;;;;6.88;1.10;;;25.20;57.00;;;;;;5039259;28;20577;-82
2023/07/17 10:03:33;;;;;;;6.60;1.17;;;26.00;55.50;;;;;;5032300;28;20025;-82
2023/07/17 10:05:59;;;;;;;3.53;1.00;;;26.00;53.90;;;;;;5032972;28;20435;-81
2023/07/17 10:08:28;;;;;;;3.85;1.05;;;25.50;53.60;;;;;;5047282;28;20059;-82
2023/07/17 10:10:54;;;;;;;3.83;1.02;;;25.00;55.50;;;;;;5032200;28;20022;-82
2023/07/17 10:13:20;;;;;;;6.22;1.10;;;24.80;57.50;;;;;;5031953;28;20040;-83
2023/07/17 10:15:46;;;;;;;5.00;1.92;;;25.00;57.50;;;;;;5031673;28;20094;-82
2023/07/17 10:18:12;;;;;;;3.72;0.80;;;25.10;54.80;;;;;;5031497;28;20540;-84
2023/07/17 10:20:49;;;;;;;6.32;1.67;;;25.50;55.00;;;;;;5032167;28;20474;-83
2023/07/17 10:23:23;;;;;;;5.78;1.60;;;26.50;53.00;;;;;;5031854;28;20052;-82
2023/07/17 10:25:50;;;;;;;9.60;1.25;;;26.60;51.20;;;;;;5032033;28;20017;-81
2023/07/17 10:28:30;;;;;;;3.92;1.13;;;25.80;52.20;;;;;;5031686;28;20136;-82
2023/07/17 10:31:04;;;;;;;4.38;0.88;;;25.50;53.20;;;;;;5031974;28;20028;-82
2023/07/17 10:33:36;;;;;;;9.88;1.10;;;25.40;53.20;;;;;;5031812;28;20029;-82
2023/07/17 10:36:01;;;;;;;5.38;1.17;;;25.90;53.50;;;;;;5046633;22;20038;-83
2023/07/17 10:38:39;;;;;;;5.47;0.98;;;26.40;52.30;;;;;;5050270;28;20416;-85
2023/07/17 10:41:13;;;;;;;11.88;1.58;;;27.10;51.10;;;;;;5058696;28;20025;-84
2023/07/17 10:43:54;;;;;;;5.70;1.25;;;27.10;49.40;;;;;;5057236;28;20025;-83
2023/07/17 10:46:24;;;;;;;6.47;1.20;;;27.10;49.50;;;;;;5051709;28;20017;-83
2023/07/17 10:48:50;;;;;;;4.15;1.23;;;26.20;50.50;;;;;;5050108;28;20258;-84
2023/07/17 10:51:15;;;;;;;5.45;1.40;;;25.90;53.00;;;;;;5051232;28;20683;-82
2023/07/17 10:53:41;;;;;;;10.13;1.83;;;25.10;54.00;;;;;;5051766;28;20588;-83
2023/07/17 10:56:07;;;;;;;4.60;1.00;;;25.00;56.20;;;;;;5050234;28;20036;-84
2023/07/17 10:58:33;;;;;;;5.05;1.25;;;26.40;54.50;;;;;;5051333;28;20037;-84
2023/07/17 11:01:06;;;;;;;4.55;1.02;;;26.70;52.00;;;;;;5051307;28;20024;-82
2023/07/17 11:03:32;;;;;;;6.20;1.00;;;26.90;51.10;;;;;;5051141;28;20048;-83
2023/07/17 11:05:58;;;;;;;10.10;1.75;;;27.30;50.70;;;;;;5050948;28;20470;-84
2023/07/17 11:08:26;;;;;;;5.32;1.35;;;28.00;49.40;;;;;;5049717;28;20027;-84
2023/07/17 11:10:52;;;;;;;4.40;0.98;;;27.90;49.60;;;;;;5049770;28;20473;-83
2023/07/17 11:13:18;;;;;;;9.20;1.17;;;27.20;48.10;;;;;;5050950;28;20036;-84
2023/07/17 11:15:44;;;;;;;7.50;1.10;;;27.40;48.30;;;;;;5051190;28;20017;-84
2023/07/17 11:18:10;;;;;;;6.25;1.00;;;27.80;48.10;;;;;;5057877;28;20025;-84
2023/07/17 11:20:36;;;;;;;9.48;1.60;;;27.80;47.70;;;;;;5050906;28;20151;-83
2023/07/17 11:23:03;;;;;;;3.92;1.15;;;27.30;49.00;;;;;;5049657;28;20028;-82
2023/07/17 11:25:30;;;;;;;5.95;1.42;;;27.60;48.40;;;;;;5050882;28;20577;-82
2023/07/17 11:27:58;;;;;;;9.75;1.10;;;28.00;47.50;;;;;;5050818;28;20029;-81
2023/07/17 11:30:34;;;;;;;5.85;1.30;;;28.20;45.50;;;;;;5052816;28;20016;-84
2023/07/17 11:33:08;;;;;;;3.30;1.15;;;27.30;47.00;;;;;;5048918;28;20032;-83
2023/07/17 11:38:18;;;;;;;5.22;1.25;;;26.60;48.10;;;;;;5052268;28;20047;-83
2023/07/17 11:40:57;;;;;;;6.68;1.42;;;27.20;48.90;;;;;;5054006;28;20028;-83
2023/07/17 11:43:41;;;;;;;2.97;0.70;;;27.80;48.90;;;;;;5036678;28;20437;-81
2023/07/17 11:46:08;;;;;;;4.25;0.90;;;27.50;46.80;;;;;;5053909;28;20023;-81
2023/07/17 11:48:44;;;;;;;5.15;0.93;;;27.40;46.00;;;;;;5054328;28;20024;-82
2023/07/17 11:51:10;;;;;;;6.75;1.42;;;27.70;46.60;;;;;;5053187;28;20033;-83
2023/07/17 11:53:37;;;;;;;6.55;1.17;;;27.50;47.10;;;;;;5053623;28;20600;-82
2023/07/17 11:56:03;;;;;;;4.10;0.82;;;27.90;47.90;;;;;;5053543;28;20021;-82
2023/07/17 11:58:31;;;;;;;5.13;1.20;;;28.40;47.50;;;;;;5036478;28;20029;-82
2023/07/17 12:00:57;;;;;;;7.07;1.58;;;28.70;44.10;;;;;;5067871;28;20047;-82
2023/07/17 12:03:23;;;;;;;7.25;0.80;;;28.20;44.10;;;;;;5055893;28;20047;-82
2023/07/17 12:05:49;;;;;;;4.55;0.93;;;28.40;45.30;;;;;;5053787;28;20632;-83
2023/07/17 12:08:15;;;;;;;3.25;0.80;;;27.60;44.30;;;;;;5053123;28;20040;-82
2023/07/17 12:10:41;;;;;;;5.75;1.05;;;28.40;45.70;;;;;;5053290;28;20067;-83
2023/07/17 12:13:09;;;;;;;3.45;1.30;;;28.30;45.00;;;;;;5036295;28;20393;-81
2023/07/17 12:15:35;;;;;;;4.55;0.98;;;28.40;47.20;;;;;;5053444;28;20037;-81
2023/07/17 12:18:01;;;;;;;5.72;1.05;;;28.90;45.20;;;;;;5053388;28;20040;-83
2023/07/17 12:20:29;;;;;;;6.65;1.20;;;28.40;44.60;;;;;;5053074;28;20078;-82
2023/07/17 12:22:57;;;;;;;4.85;0.93;;;28.90;45.00;;;;;;5053425;28;20021;-83
2023/07/17 12:25:23;;;;;;;5.45;0.95;;;29.00;42.70;;;;;;5052429;28;20373;-83
2023/07/17 12:27:49;;;;;;;7.50;0.90;;;28.40;44.30;;;;;;5052857;28;20024;-82
2023/07/17 12:30:16;;;;;;;8.40;1.30;;;28.30;45.80;;;;;;5052928;28;20024;-84
2023/07/17 12:32:42;;;;;;;9.07;1.17;;;28.40;43.90;;;;;;5052764;28;20017;-81
2023/07/17 12:35:08;;;;;;;5.18;0.68;;;28.00;45.70;;;;;;5052826;28;20090;-81
2023/07/17 12:37:34;;;;;;;5.93;1.08;;;28.20;44.10;;;;;;5055324;22;20056;-82
2023/07/17 12:40:00;;;;;;;3.97;1.10;;;28.40;43.60;;;;;;5052950;28;20105;-84
2023/07/17 12:42:26;;;;;;;6.53;1.17;;;28.10;43.70;;;;;;5052210;28;20025;-85